sensor_id;sensor_type;location;lat;lon;timestamp;P1;durP1;ratioP1;P2;durP2;ratioP2
70899;SDS011;67902;52.154;5.430;2023-05-07T00:02:17;11.35;;;6.55;;
70899;SDS011;67902;52.154;5.430;2023-05-07T00:04:43;13.68;;;7.07;;
70899;SDS011;67902;52.154;5.430;2023-05-07T00:07:10;12.93;;;6.60;;
70899;SDS011;67902;52.154;5.430;2023-05-07T00:09:36;12.13;;;7.68;;
70899;SDS011;67902;52.154;5.430;2023-05-07T00:12:03;10.68;;;6.30;;
70899;SDS011;67902;52.154;5.430;2023-05-07T00:14:29;11.45;;;6.72;;
70899;SDS011;67902;52.154;5.430;2023-05-07T00:16:56;13.65;;;6.90;;
70899;SDS011;67902;52.154;5.430;2023-05-07T00:19:22;10.82;;;6.65;;
70899;SDS011;67902;52.154;5.430;2023-05-07T00:21:48;11.13;;;6.00;;
70899;SDS011;67902;52.154;5.430;2023-05-07T00:24:15;13.40;;;7.10;;
70899;SDS011;67902;52.154;5.430;2023-05-07T00:26:41;12.30;;;5.97;;
70899;SDS011;67902;52.154;5.430;2023-05-07T00:29:08;13.02;;;6.95;;
70899;SDS011;67902;52.154;5.430;2023-05-07T00:31:34;13.13;;;6.32;;
70899;SDS011;67902;52.154;5.430;2023-05-07T00:34:01;10.65;;;6.55;;
70899;SDS011;67902;52.154;5.430;2023-05-07T00:36:27;13.68;;;6.38;;
70899;SDS011;67902;52.154;5.430;2023-05-07T00:38:56;11.23;;;6.53;;
70899;SDS011;67902;52.154;5.430;2023-05-07T00:41:23;13.80;;;6.97;;
70899;SDS011;67902;52.154;5.430;2023-05-07T00:43:49;14.50;;;7.78;;
70899;SDS011;67902;52.154;5.430;2023-05-07T00:46:18;12.50;;;7.18;;
70899;SDS011;67902;52.154;5.430;2023-05-07T00:48:46;12.65;;;7.30;;
70899;SDS011;67902;52.154;5.430;2023-05-07T00:51:14;12.75;;;7.35;;
70899;SDS011;67902;52.154;5.430;2023-05-07T00:53:40;13.05;;;7.43;;
70899;SDS011;67902;52.154;5.430;2023-05-07T00:56:07;14.43;;;7.53;;
70899;SDS011;67902;52.154;5.430;2023-05-07T00:58:33;13.02;;;7.45;;
70899;SDS011;67902;52.154;5.430;2023-05-07T01:01:00;13.38;;;7.40;;
70899;SDS011;67902;52.154;5.430;2023-05-07T01:03:27;12.77;;;6.72;;
70899;SDS011;67902;52.154;5.430;2023-05-07T01:05:54;14.07;;;7.15;;
70899;SDS011;67902;52.154;5.430;2023-05-07T01:08:24;13.50;;;8.05;;
70899;SDS011;67902;52.154;5.430;2023-05-07T01:10:52;13.48;;;6.90;;
70899;SDS011;67902;52.154;5.430;2023-05-07T01:13:19;12.02;;;7.32;;
70899;SDS011;67902;52.154;5.430;2023-05-07T01:15:46;11.60;;;7.13;;
70899;SDS011;67902;52.154;5.430;2023-05-07T01:18:13;10.68;;;6.88;;
70899;SDS011;67902;52.154;5.430;2023-05-07T01:20:39;12.55;;;6.95;;
70899;SDS011;67902;52.154;5.430;2023-05-07T01:23:06;13.75;;;7.38;;
70899;SDS011;67902;52.154;5.430;2023-05-07T01:25:33;13.68;;;7.07;;
70899;SDS011;67902;52.154;5.430;2023-05-07T01:27:59;13.82;;;6.80;;
70899;SDS011;67902;52.154;5.430;2023-05-07T01:30:27;10.82;;;6.50;;
70899;SDS011;67902;52.154;5.430;2023-05-07T01:33:04;10.50;;;6.80;;
70899;SDS011;67902;52.154;5.430;2023-05-07T01:35:40;11.60;;;7.13;;
70899;SDS011;67902;52.154;5.430;2023-05-07T01:38:09;11.32;;;6.88;;
70899;SDS011;67902;52.154;5.430;2023-05-07T01:40:36;14.70;;;8.02;;
70899;SDS011;67902;52.154;5.430;2023-05-07T01:43:02;13.20;;;8.00;;
70899;SDS011;67902;52.154;5.430;2023-05-07T01:45:30;12.63;;;7.70;;
70899;SDS011;67902;52.154;5.430;2023-05-07T01:48:01;11.68;;;7.18;;
70899;SDS011;67902;52.154;5.430;2023-05-07T01:50:29;12.93;;;7.40;;
70899;SDS011;67902;52.154;5.430;2023-05-07T01:52:57;13.30;;;7.40;;
70899;SDS011;67902;52.154;5.430;2023-05-07T01:55:24;12.05;;;7.15;;
70899;SDS011;67902;52.154;5.430;2023-05-07T01:57:50;12.85;;;8.13;;
70899;SDS011;67902;52.154;5.430;2023-05-07T02:00:17;13.20;;;8.13;;
70899;SDS011;67902;52.154;5.430;2023-05-07T02:02:43;12.93;;;7.90;;
70899;SDS011;67902;52.154;5.430;2023-05-07T02:05:10;12.40;;;7.22;;
70899;SDS011;67902;52.154;5.430;2023-05-07T02:07:36;13.25;;;7.75;;
70899;SDS011;67902;52.154;5.430;2023-05-07T02:10:03;13.45;;;7.53;;
70899;SDS011;67902;52.154;5.430;2023-05-07T02:12:29;13.23;;;7.22;;
70899;SDS011;67902;52.154;5.430;2023-05-07T02:14:56;12.55;;;7.30;;
70899;SDS011;67902;52.154;5.430;2023-05-07T02:17:22;11.18;;;7.03;;
70899;SDS011;67902;52.154;5.430;2023-05-07T02:19:48;12.10;;;7.35;;
70899;SDS011;67902;52.154;5.430;2023-05-07T02:22:15;14.27;;;7.60;;
70899;SDS011;67902;52.154;5.430;2023-05-07T02:24:41;15.13;;;8.13;;
70899;SDS011;67902;52.154;5.430;2023-05-07T02:27:08;12.25;;;7.57;;
70899;SDS011;67902;52.154;5.430;2023-05-07T02:29:34;12.15;;;7.18;;
70899;SDS011;67902;52.154;5.430;2023-05-07T02:32:00;13.13;;;7.50;;
70899;SDS011;67902;52.154;5.430;2023-05-07T02:34:27;15.13;;;8.20;;
70899;SDS011;67902;52.154;5.430;2023-05-07T02:36:53;12.90;;;7.65;;
70899;SDS011;67902;52.154;5.430;2023-05-07T02:39:20;14.43;;;8.48;;
70899;SDS011;67902;52.154;5.430;2023-05-07T02:41:46;14.73;;;8.20;;
70899;SDS011;67902;52.154;5.430;2023-05-07T02:44:12;13.38;;;8.15;;
70899;SDS011;67902;52.154;5.430;2023-05-07T02:46:39;15.18;;;8.50;;
70899;SDS011;67902;52.154;5.430;2023-05-07T02:49:05;12.43;;;8.07;;
70899;SDS011;67902;52.154;5.430;2023-05-07T02:51:32;13.70;;;8.13;;
70899;SDS011;67902;52.154;5.430;2023-05-07T02:53:58;13.70;;;8.60;;
70899;SDS011;67902;52.154;5.430;2023-05-07T02:56:25;17.25;;;9.18;;
70899;SDS011;67902;52.154;5.430;2023-05-07T03:01:18;11.88;;;7.50;;
70899;SDS011;67902;52.154;5.430;2023-05-07T03:03:45;13.75;;;8.50;;
70899;SDS011;67902;52.154;5.430;2023-05-07T03:06:11;13.65;;;8.20;;
70899;SDS011;67902;52.154;5.430;2023-05-07T03:08:37;15.02;;;9.10;;
70899;SDS011;67902;52.154;5.430;2023-05-07T03:11:04;18.70;;;8.05;;
70899;SDS011;67902;52.154;5.430;2023-05-07T03:13:31;13.65;;;8.40;;
70899;SDS011;67902;52.154;5.430;2023-05-07T03:15:57;15.50;;;8.07;;
70899;SDS011;67902;52.154;5.430;2023-05-07T03:18:23;13.07;;;8.35;;
70899;SDS011;67902;52.154;5.430;2023-05-07T03:20:51;15.73;;;7.95;;
70899;SDS011;67902;52.154;5.430;2023-05-07T03:23:17;15.20;;;8.32;;
70899;SDS011;67902;52.154;5.430;2023-05-07T03:25:44;12.13;;;7.72;;
70899;SDS011;67902;52.154;5.430;2023-05-07T03:28:10;16.13;;;8.50;;
70899;SDS011;67902;52.154;5.430;2023-05-07T03:30:37;13.93;;;8.32;;
70899;SDS011;67902;52.154;5.430;2023-05-07T03:33:03;14.43;;;8.25;;
70899;SDS011;67902;52.154;5.430;2023-05-07T03:35:30;12.95;;;7.95;;
70899;SDS011;67902;52.154;5.430;2023-05-07T03:37:56;13.77;;;7.78;;
70899;SDS011;67902;52.154;5.430;2023-05-07T03:40:22;13.75;;;8.27;;
70899;SDS011;67902;52.154;5.430;2023-05-07T03:42:49;12.55;;;7.32;;
70899;SDS011;67902;52.154;5.430;2023-05-07T03:45:15;17.17;;;8.43;;
70899;SDS011;67902;52.154;5.430;2023-05-07T03:47:42;13.98;;;8.85;;
70899;SDS011;67902;52.154;5.430;2023-05-07T03:50:08;14.35;;;8.18;;
70899;SDS011;67902;52.154;5.430;2023-05-07T03:52:36;14.50;;;9.13;;
70899;SDS011;67902;52.154;5.430;2023-05-07T03:55:03;15.20;;;8.60;;
70899;SDS011;67902;52.154;5.430;2023-05-07T03:57:30;12.60;;;8.30;;
70899;SDS011;67902;52.154;5.430;2023-05-07T03:59:56;12.95;;;7.80;;
70899;SDS011;67902;52.154;5.430;2023-05-07T04:02:23;12.95;;;7.75;;
70899;SDS011;67902;52.154;5.430;2023-05-07T04:04:49;13.70;;;7.75;;
70899;SDS011;67902;52.154;5.430;2023-05-07T04:07:16;13.38;;;7.90;;
70899;SDS011;67902;52.154;5.430;2023-05-07T04:09:42;14.50;;;8.95;;
70899;SDS011;67902;52.154;5.430;2023-05-07T04:12:09;14.35;;;9.20;;
70899;SDS011;67902;52.154;5.430;2023-05-07T04:14:35;15.90;;;8.85;;
70899;SDS011;67902;52.154;5.430;2023-05-07T04:17:01;16.10;;;8.85;;
70899;SDS011;67902;52.154;5.430;2023-05-07T04:19:28;16.40;;;9.25;;
70899;SDS011;67902;52.154;5.430;2023-05-07T04:21:55;16.13;;;9.38;;
70899;SDS011;67902;52.154;5.430;2023-05-07T04:24:21;16.45;;;9.25;;
70899;SDS011;67902;52.154;5.430;2023-05-07T04:26:48;17.10;;;9.73;;
70899;SDS011;67902;52.154;5.430;2023-05-07T04:29:14;16.23;;;9.73;;
70899;SDS011;67902;52.154;5.430;2023-05-07T04:31:40;17.38;;;10.48;;
70899;SDS011;67902;52.154;5.430;2023-05-07T04:34:10;17.67;;;10.10;;
70899;SDS011;67902;52.154;5.430;2023-05-07T04:36:37;17.98;;;10.48;;
70899;SDS011;67902;52.154;5.430;2023-05-07T04:39:04;18.90;;;10.75;;
70899;SDS011;67902;52.154;5.430;2023-05-07T04:41:31;17.77;;;10.60;;
70899;SDS011;67902;52.154;5.430;2023-05-07T04:43:59;17.75;;;10.48;;
70899;SDS011;67902;52.154;5.430;2023-05-07T04:46:25;19.67;;;10.60;;
70899;SDS011;67902;52.154;5.430;2023-05-07T04:48:52;19.25;;;10.10;;
70899;SDS011;67902;52.154;5.430;2023-05-07T04:51:18;16.10;;;10.43;;
70899;SDS011;67902;52.154;5.430;2023-05-07T04:53:45;17.17;;;9.93;;
70899;SDS011;67902;52.154;5.430;2023-05-07T04:56:11;17.48;;;10.57;;
70899;SDS011;67902;52.154;5.430;2023-05-07T04:58:37;19.55;;;10.60;;
70899;SDS011;67902;52.154;5.430;2023-05-07T05:01:04;18.38;;;10.23;;
70899;SDS011;67902;52.154;5.430;2023-05-07T05:03:30;16.52;;;10.07;;
70899;SDS011;67902;52.154;5.430;2023-05-07T05:05:57;18.90;;;10.50;;
70899;SDS011;67902;52.154;5.430;2023-05-07T05:08:25;18.88;;;10.93;;
70899;SDS011;67902;52.154;5.430;2023-05-07T05:10:52;18.95;;;10.45;;
70899;SDS011;67902;52.154;5.430;2023-05-07T05:13:19;19.55;;;11.85;;
70899;SDS011;67902;52.154;5.430;2023-05-07T05:15:45;18.77;;;11.50;;
70899;SDS011;67902;52.154;5.430;2023-05-07T05:18:12;21.13;;;10.90;;
70899;SDS011;67902;52.154;5.430;2023-05-07T05:20:38;21.23;;;11.23;;
70899;SDS011;67902;52.154;5.430;2023-05-07T05:23:04;17.15;;;10.77;;
70899;SDS011;67902;52.154;5.430;2023-05-07T05:25:32;18.45;;;11.05;;
70899;SDS011;67902;52.154;5.430;2023-05-07T05:27:58;23.60;;;11.65;;
70899;SDS011;67902;52.154;5.430;2023-05-07T05:30:24;21.20;;;12.40;;
70899;SDS011;67902;52.154;5.430;2023-05-07T05:32:51;22.13;;;12.48;;
70899;SDS011;67902;52.154;5.430;2023-05-07T05:35:17;21.42;;;11.95;;
70899;SDS011;67902;52.154;5.430;2023-05-07T05:37:44;20.38;;;11.07;;
70899;SDS011;67902;52.154;5.430;2023-05-07T05:40:10;20.08;;;11.52;;
70899;SDS011;67902;52.154;5.430;2023-05-07T05:42:37;22.13;;;11.95;;
70899;SDS011;67902;52.154;5.430;2023-05-07T05:45:04;22.33;;;11.93;;
70899;SDS011;67902;52.154;5.430;2023-05-07T05:47:31;20.25;;;11.45;;
70899;SDS011;67902;52.154;5.430;2023-05-07T05:49:57;20.35;;;11.07;;
70899;SDS011;67902;52.154;5.430;2023-05-07T05:52:24;18.83;;;11.10;;
70899;SDS011;67902;52.154;5.430;2023-05-07T05:54:51;21.25;;;12.40;;
70899;SDS011;67902;52.154;5.430;2023-05-07T05:57:17;21.08;;;12.52;;
70899;SDS011;67902;52.154;5.430;2023-05-07T05:59:43;18.80;;;11.88;;
70899;SDS011;67902;52.154;5.430;2023-05-07T06:02:10;24.02;;;12.18;;
70899;SDS011;67902;52.154;5.430;2023-05-07T06:04:36;20.00;;;12.25;;
70899;SDS011;67902;52.154;5.430;2023-05-07T06:07:03;21.17;;;11.48;;
70899;SDS011;67902;52.154;5.430;2023-05-07T06:09:29;20.25;;;12.05;;
70899;SDS011;67902;52.154;5.430;2023-05-07T06:11:56;19.10;;;11.15;;
70899;SDS011;67902;52.154;5.430;2023-05-07T06:14:25;18.00;;;11.30;;
70899;SDS011;67902;52.154;5.430;2023-05-07T06:16:53;21.05;;;11.15;;
70899;SDS011;67902;52.154;5.430;2023-05-07T06:21:49;21.30;;;11.48;;
70899;SDS011;67902;52.154;5.430;2023-05-07T06:24:16;17.70;;;11.07;;
70899;SDS011;67902;52.154;5.430;2023-05-07T06:26:42;22.65;;;12.30;;
70899;SDS011;67902;52.154;5.430;2023-05-07T06:29:09;22.02;;;11.18;;
70899;SDS011;67902;52.154;5.430;2023-05-07T06:31:35;21.35;;;11.73;;
70899;SDS011;67902;52.154;5.430;2023-05-07T06:34:02;21.35;;;12.57;;
70899;SDS011;67902;52.154;5.430;2023-05-07T06:36:28;22.23;;;12.45;;
70899;SDS011;67902;52.154;5.430;2023-05-07T06:38:55;22.48;;;12.43;;
70899;SDS011;67902;52.154;5.430;2023-05-07T06:41:21;19.35;;;11.93;;
70899;SDS011;67902;52.154;5.430;2023-05-07T06:43:47;22.63;;;12.48;;
70899;SDS011;67902;52.154;5.430;2023-05-07T06:46:14;22.42;;;13.13;;
70899;SDS011;67902;52.154;5.430;2023-05-07T06:48:41;27.63;;;12.40;;
70899;SDS011;67902;52.154;5.430;2023-05-07T06:51:07;22.65;;;13.02;;
70899;SDS011;67902;52.154;5.430;2023-05-07T06:53:34;20.63;;;12.75;;
70899;SDS011;67902;52.154;5.430;2023-05-07T06:56:01;23.65;;;12.98;;
70899;SDS011;67902;52.154;5.430;2023-05-07T06:58:28;21.15;;;12.20;;
70899;SDS011;67902;52.154;5.430;2023-05-07T07:00:54;20.63;;;12.35;;
70899;SDS011;67902;52.154;5.430;2023-05-07T07:03:20;22.52;;;12.75;;
70899;SDS011;67902;52.154;5.430;2023-05-07T07:05:47;21.95;;;12.55;;
70899;SDS011;67902;52.154;5.430;2023-05-07T07:08:13;20.00;;;11.75;;
70899;SDS011;67902;52.154;5.430;2023-05-07T07:10:40;20.60;;;12.45;;
70899;SDS011;67902;52.154;5.430;2023-05-07T07:13:07;21.08;;;13.20;;
70899;SDS011;67902;52.154;5.430;2023-05-07T07:15:33;20.73;;;12.50;;
70899;SDS011;67902;52.154;5.430;2023-05-07T07:17:59;20.75;;;12.02;;
70899;SDS011;67902;52.154;5.430;2023-05-07T07:20:26;18.80;;;11.73;;
70899;SDS011;67902;52.154;5.430;2023-05-07T07:22:52;19.10;;;11.65;;
70899;SDS011;67902;52.154;5.430;2023-05-07T07:25:19;20.13;;;11.48;;
70899;SDS011;67902;52.154;5.430;2023-05-07T07:27:45;21.20;;;12.23;;
70899;SDS011;67902;52.154;5.430;2023-05-07T07:30:11;18.75;;;11.38;;
70899;SDS011;67902;52.154;5.430;2023-05-07T07:32:38;17.48;;;11.52;;
70899;SDS011;67902;52.154;5.430;2023-05-07T07:35:05;20.15;;;12.05;;
70899;SDS011;67902;52.154;5.430;2023-05-07T07:37:32;21.80;;;12.30;;
70899;SDS011;67902;52.154;5.430;2023-05-07T07:39:59;20.00;;;12.50;;
70899;SDS011;67902;52.154;5.430;2023-05-07T07:44:52;17.20;;;11.10;;
70899;SDS011;67902;52.154;5.430;2023-05-07T07:47:19;21.60;;;12.40;;
70899;SDS011;67902;52.154;5.430;2023-05-07T07:49:45;19.83;;;12.57;;
70899;SDS011;67902;52.154;5.430;2023-05-07T07:52:12;20.23;;;11.85;;
70899;SDS011;67902;52.154;5.430;2023-05-07T07:54:38;19.88;;;11.60;;
70899;SDS011;67902;52.154;5.430;2023-05-07T07:57:05;20.02;;;11.63;;
70899;SDS011;67902;52.154;5.430;2023-05-07T07:59:31;16.73;;;10.65;;
70899;SDS011;67902;52.154;5.430;2023-05-07T08:01:57;19.83;;;12.15;;
70899;SDS011;67902;52.154;5.430;2023-05-07T08:04:24;17.17;;;11.77;;
70899;SDS011;67902;52.154;5.430;2023-05-07T08:06:50;18.92;;;12.20;;
70899;SDS011;67902;52.154;5.430;2023-05-07T08:09:17;18.35;;;11.45;;
70899;SDS011;67902;52.154;5.430;2023-05-07T08:11:43;19.30;;;12.77;;
70899;SDS011;67902;52.154;5.430;2023-05-07T08:14:10;17.63;;;11.75;;
70899;SDS011;67902;52.154;5.430;2023-05-07T08:16:37;21.98;;;12.50;;
70899;SDS011;67902;52.154;5.430;2023-05-07T08:19:04;19.55;;;12.63;;
70899;SDS011;67902;52.154;5.430;2023-05-07T08:21:30;19.73;;;12.27;;
70899;SDS011;67902;52.154;5.430;2023-05-07T08:23:59;19.85;;;12.88;;
70899;SDS011;67902;52.154;5.430;2023-05-07T08:26:26;23.30;;;13.02;;
70899;SDS011;67902;52.154;5.430;2023-05-07T08:28:52;23.10;;;13.52;;
70899;SDS011;67902;52.154;5.430;2023-05-07T08:31:19;20.92;;;13.07;;
70899;SDS011;67902;52.154;5.430;2023-05-07T08:33:45;23.38;;;14.70;;
70899;SDS011;67902;52.154;5.430;2023-05-07T08:36:12;22.95;;;14.43;;
70899;SDS011;67902;52.154;5.430;2023-05-07T08:38:38;22.88;;;14.43;;
70899;SDS011;67902;52.154;5.430;2023-05-07T08:41:06;24.27;;;14.07;;
70899;SDS011;67902;52.154;5.430;2023-05-07T08:43:36;24.52;;;14.65;;
70899;SDS011;67902;52.154;5.430;2023-05-07T08:46:09;27.20;;;15.65;;
70899;SDS011;67902;52.154;5.430;2023-05-07T08:48:36;22.55;;;14.05;;
70899;SDS011;67902;52.154;5.430;2023-05-07T08:51:03;24.23;;;15.27;;
70899;SDS011;67902;52.154;5.430;2023-05-07T08:53:29;24.48;;;15.00;;
70899;SDS011;67902;52.154;5.430;2023-05-07T08:55:56;23.30;;;14.68;;
70899;SDS011;67902;52.154;5.430;2023-05-07T08:58:23;25.63;;;14.90;;
70899;SDS011;67902;52.154;5.430;2023-05-07T09:00:49;21.90;;;14.82;;
70899;SDS011;67902;52.154;5.430;2023-05-07T09:03:18;24.38;;;16.15;;
70899;SDS011;67902;52.154;5.430;2023-05-07T09:05:45;23.48;;;15.48;;
70899;SDS011;67902;52.154;5.430;2023-05-07T09:08:14;23.02;;;14.75;;
70899;SDS011;67902;52.154;5.430;2023-05-07T09:10:42;22.63;;;15.45;;
70899;SDS011;67902;52.154;5.430;2023-05-07T09:13:08;25.00;;;15.25;;
70899;SDS011;67902;52.154;5.430;2023-05-07T09:15:36;24.05;;;14.63;;
70899;SDS011;67902;52.154;5.430;2023-05-07T09:18:03;24.42;;;14.93;;
70899;SDS011;67902;52.154;5.430;2023-05-07T09:20:30;25.30;;;14.68;;
70899;SDS011;67902;52.154;5.430;2023-05-07T09:22:57;22.02;;;14.45;;
70899;SDS011;67902;52.154;5.430;2023-05-07T09:25:30;22.35;;;14.23;;
70899;SDS011;67902;52.154;5.430;2023-05-07T09:27:58;22.15;;;13.48;;
70899;SDS011;67902;52.154;5.430;2023-05-07T09:30:32;22.30;;;13.60;;
70899;SDS011;67902;52.154;5.430;2023-05-07T09:33:00;21.00;;;13.52;;
70899;SDS011;67902;52.154;5.430;2023-05-07T09:35:29;20.60;;;12.32;;
70899;SDS011;67902;52.154;5.430;2023-05-07T09:37:57;21.50;;;13.05;;
70899;SDS011;67902;52.154;5.430;2023-05-07T09:40:29;20.58;;;13.18;;
70899;SDS011;67902;52.154;5.430;2023-05-07T09:43:07;22.25;;;12.70;;
70899;SDS011;67902;52.154;5.430;2023-05-07T09:45:35;19.77;;;12.85;;
70899;SDS011;67902;52.154;5.430;2023-05-07T09:48:03;22.38;;;13.00;;
70899;SDS011;67902;52.154;5.430;2023-05-07T09:50:35;23.35;;;12.73;;
70899;SDS011;67902;52.154;5.430;2023-05-07T09:53:04;18.73;;;11.63;;
70899;SDS011;67902;52.154;5.430;2023-05-07T09:55:32;20.88;;;12.48;;
70899;SDS011;67902;52.154;5.430;2023-05-07T09:57:58;18.45;;;11.77;;
70899;SDS011;67902;52.154;5.430;2023-05-07T10:02:53;19.25;;;10.45;;
70899;SDS011;67902;52.154;5.430;2023-05-07T10:05:23;18.83;;;11.07;;
70899;SDS011;67902;52.154;5.430;2023-05-07T10:07:51;17.13;;;10.65;;
70899;SDS011;67902;52.154;5.430;2023-05-07T10:10:19;18.23;;;11.13;;
70899;SDS011;67902;52.154;5.430;2023-05-07T10:15:13;21.08;;;11.40;;
70899;SDS011;67902;52.154;5.430;2023-05-07T10:20:07;22.83;;;11.80;;
70899;SDS011;67902;52.154;5.430;2023-05-07T10:22:39;20.67;;;11.23;;
70899;SDS011;67902;52.154;5.430;2023-05-07T10:25:22;17.75;;;11.30;;
70899;SDS011;67902;52.154;5.430;2023-05-07T10:27:52;20.30;;;10.75;;
70899;SDS011;67902;52.154;5.430;2023-05-07T10:33:19;21.65;;;11.85;;
70899;SDS011;67902;52.154;5.430;2023-05-07T10:35:52;18.27;;;10.35;;
70899;SDS011;67902;52.154;5.430;2023-05-07T10:38:23;19.88;;;11.48;;
70899;SDS011;67902;52.154;5.430;2023-05-07T10:40:51;18.33;;;11.68;;
70899;SDS011;67902;52.154;5.430;2023-05-07T10:43:18;19.75;;;11.23;;
70899;SDS011;67902;52.154;5.430;2023-05-07T10:46:08;18.35;;;11.40;;
70899;SDS011;67902;52.154;5.430;2023-05-07T10:51:26;19.48;;;11.25;;
70899;SDS011;67902;52.154;5.430;2023-05-07T10:56:36;17.08;;;11.00;;
70899;SDS011;67902;52.154;5.430;2023-05-07T11:01:57;19.85;;;11.77;;
70899;SDS011;67902;52.154;5.430;2023-05-07T11:04:32;18.08;;;11.18;;
70899;SDS011;67902;52.154;5.430;2023-05-07T11:13:01;18.25;;;11.55;;
70899;SDS011;67902;52.154;5.430;2023-05-07T11:15:12;19.88;;;12.82;;
70899;SDS011;67902;52.154;5.430;2023-05-07T11:18:00;20.25;;;12.48;;
70899;SDS011;67902;52.154;5.430;2023-05-07T11:26:09;18.80;;;12.75;;
70899;SDS011;67902;52.154;5.430;2023-05-07T11:28:38;21.98;;;13.98;;
70899;SDS011;67902;52.154;5.430;2023-05-07T11:31:05;20.33;;;13.25;;
70899;SDS011;67902;52.154;5.430;2023-05-07T11:38:26;19.58;;;12.52;;
70899;SDS011;67902;52.154;5.430;2023-05-07T11:40:53;21.10;;;13.52;;
70899;SDS011;67902;52.154;5.430;2023-05-07T11:43:28;22.30;;;13.60;;
70899;SDS011;67902;52.154;5.430;2023-05-07T11:45:55;19.48;;;12.98;;
70899;SDS011;67902;52.154;5.430;2023-05-07T11:48:31;20.15;;;13.50;;
70899;SDS011;67902;52.154;5.430;2023-05-07T11:53:24;21.65;;;12.90;;
70899;SDS011;67902;52.154;5.430;2023-05-07T11:55:52;20.60;;;13.65;;
70899;SDS011;67902;52.154;5.430;2023-05-07T11:58:22;20.60;;;13.50;;
70899;SDS011;67902;52.154;5.430;2023-05-07T12:00:53;22.30;;;13.30;;
70899;SDS011;67902;52.154;5.430;2023-05-07T12:03:20;18.92;;;13.25;;
70899;SDS011;67902;52.154;5.430;2023-05-07T12:08:17;18.55;;;12.07;;
70899;SDS011;67902;52.154;5.430;2023-05-07T12:10:44;19.85;;;13.10;;
70899;SDS011;67902;52.154;5.430;2023-05-07T12:13:23;18.58;;;12.80;;
70899;SDS011;67902;52.154;5.430;2023-05-07T12:15:52;21.88;;;13.88;;
70899;SDS011;67902;52.154;5.430;2023-05-07T12:18:19;22.45;;;13.52;;
70899;SDS011;67902;52.154;5.430;2023-05-07T12:20:46;19.75;;;13.20;;
70899;SDS011;67902;52.154;5.430;2023-05-07T12:23:14;17.60;;;12.18;;
70899;SDS011;67902;52.154;5.430;2023-05-07T12:25:41;17.77;;;12.02;;
70899;SDS011;67902;52.154;5.430;2023-05-07T12:28:14;20.33;;;12.60;;
70899;SDS011;67902;52.154;5.430;2023-05-07T12:30:44;19.83;;;12.60;;
70899;SDS011;67902;52.154;5.430;2023-05-07T12:33:16;18.05;;;12.15;;
70899;SDS011;67902;52.154;5.430;2023-05-07T12:35:49;17.58;;;11.88;;
70899;SDS011;67902;52.154;5.430;2023-05-07T12:40:47;18.02;;;12.93;;
70899;SDS011;67902;52.154;5.430;2023-05-07T12:43:18;18.38;;;12.13;;
70899;SDS011;67902;52.154;5.430;2023-05-07T12:45:46;17.75;;;11.57;;
70899;SDS011;67902;52.154;5.430;2023-05-07T12:48:14;17.55;;;12.68;;
70899;SDS011;67902;52.154;5.430;2023-05-07T12:50:41;20.35;;;12.40;;
70899;SDS011;67902;52.154;5.430;2023-05-07T12:53:09;18.02;;;9.90;;
70899;SDS011;67902;52.154;5.430;2023-05-07T12:55:44;16.77;;;10.45;;
70899;SDS011;67902;52.154;5.430;2023-05-07T12:58:19;15.15;;;9.90;;
70899;SDS011;67902;52.154;5.430;2023-05-07T13:00:55;14.38;;;10.52;;
70899;SDS011;67902;52.154;5.430;2023-05-07T13:03:30;15.23;;;10.07;;
70899;SDS011;67902;52.154;5.430;2023-05-07T13:05:58;19.10;;;9.45;;
70899;SDS011;67902;52.154;5.430;2023-05-07T13:08:33;13.50;;;8.98;;
70899;SDS011;67902;52.154;5.430;2023-05-07T13:11:01;16.80;;;10.15;;
70899;SDS011;67902;52.154;5.430;2023-05-07T13:13:30;14.85;;;9.68;;
70899;SDS011;67902;52.154;5.430;2023-05-07T13:15:58;18.23;;;9.98;;
70899;SDS011;67902;52.154;5.430;2023-05-07T13:18:25;15.05;;;9.40;;
70899;SDS011;67902;52.154;5.430;2023-05-07T13:20:53;14.35;;;9.93;;
70899;SDS011;67902;52.154;5.430;2023-05-07T13:23:20;13.95;;;9.75;;
70899;SDS011;67902;52.154;5.430;2023-05-07T13:25:47;16.35;;;10.43;;
70899;SDS011;67902;52.154;5.430;2023-05-07T13:28:14;12.73;;;9.25;;
70899;SDS011;67902;52.154;5.430;2023-05-07T13:30:41;15.77;;;10.30;;
70899;SDS011;67902;52.154;5.430;2023-05-07T13:33:07;17.60;;;10.68;;
70899;SDS011;67902;52.154;5.430;2023-05-07T13:35:34;15.15;;;10.48;;
70899;SDS011;67902;52.154;5.430;2023-05-07T13:40:27;14.20;;;9.68;;
70899;SDS011;67902;52.154;5.430;2023-05-07T13:42:56;16.77;;;10.70;;
70899;SDS011;67902;52.154;5.430;2023-05-07T13:45:25;15.68;;;9.43;;
70899;SDS011;67902;52.154;5.430;2023-05-07T13:47:53;18.23;;;11.45;;
70899;SDS011;67902;52.154;5.430;2023-05-07T13:50:19;16.70;;;11.25;;
70899;SDS011;67902;52.154;5.430;2023-05-07T13:52:45;16.55;;;11.65;;
70899;SDS011;67902;52.154;5.430;2023-05-07T13:55:17;18.50;;;11.68;;
70899;SDS011;67902;52.154;5.430;2023-05-07T13:57:47;18.83;;;11.27;;
70899;SDS011;67902;52.154;5.430;2023-05-07T14:00:14;18.02;;;11.20;;
70899;SDS011;67902;52.154;5.430;2023-05-07T14:02:42;16.30;;;11.13;;
70899;SDS011;67902;52.154;5.430;2023-05-07T14:05:09;17.45;;;11.30;;
70899;SDS011;67902;52.154;5.430;2023-05-07T14:07:36;15.80;;;11.20;;
70899;SDS011;67902;52.154;5.430;2023-05-07T14:10:03;16.65;;;10.20;;
70899;SDS011;67902;52.154;5.430;2023-05-07T14:12:29;18.35;;;11.35;;
70899;SDS011;67902;52.154;5.430;2023-05-07T14:14:57;19.92;;;12.10;;
70899;SDS011;67902;52.154;5.430;2023-05-07T14:17:23;18.60;;;11.32;;
70899;SDS011;67902;52.154;5.430;2023-05-07T14:19:52;17.63;;;11.43;;
70899;SDS011;67902;52.154;5.430;2023-05-07T14:22:22;19.88;;;11.88;;
70899;SDS011;67902;52.154;5.430;2023-05-07T14:27:35;21.48;;;11.32;;
70899;SDS011;67902;52.154;5.430;2023-05-07T14:30:02;18.25;;;11.73;;
70899;SDS011;67902;52.154;5.430;2023-05-07T14:32:29;21.13;;;12.77;;
70899;SDS011;67902;52.154;5.430;2023-05-07T14:34:55;19.92;;;12.40;;
70899;SDS011;67902;52.154;5.430;2023-05-07T14:37:23;16.50;;;10.55;;
70899;SDS011;67902;52.154;5.430;2023-05-07T14:39:50;19.08;;;10.40;;
70899;SDS011;67902;52.154;5.430;2023-05-07T14:42:17;17.52;;;9.55;;
70899;SDS011;67902;52.154;5.430;2023-05-07T14:44:43;16.42;;;10.02;;
70899;SDS011;67902;52.154;5.430;2023-05-07T14:47:11;14.80;;;9.15;;
70899;SDS011;67902;52.154;5.430;2023-05-07T14:49:38;17.05;;;9.80;;
70899;SDS011;67902;52.154;5.430;2023-05-07T14:52:04;16.30;;;10.75;;
70899;SDS011;67902;52.154;5.430;2023-05-07T14:54:36;21.65;;;9.77;;
70899;SDS011;67902;52.154;5.430;2023-05-07T14:57:04;16.35;;;10.25;;
70899;SDS011;67902;52.154;5.430;2023-05-07T14:59:31;19.33;;;10.45;;
70899;SDS011;67902;52.154;5.430;2023-05-07T15:01:58;16.65;;;10.43;;
70899;SDS011;67902;52.154;5.430;2023-05-07T15:04:24;18.02;;;10.10;;
70899;SDS011;67902;52.154;5.430;2023-05-07T15:06:51;18.05;;;10.50;;
70899;SDS011;67902;52.154;5.430;2023-05-07T15:09:19;18.67;;;11.25;;
70899;SDS011;67902;52.154;5.430;2023-05-07T15:11:46;18.50;;;10.88;;
70899;SDS011;67902;52.154;5.430;2023-05-07T15:14:12;18.70;;;11.30;;
70899;SDS011;67902;52.154;5.430;2023-05-07T15:16:38;17.98;;;11.10;;
70899;SDS011;67902;52.154;5.430;2023-05-07T15:19:05;16.25;;;10.50;;
70899;SDS011;67902;52.154;5.430;2023-05-07T15:21:32;17.27;;;9.93;;
70899;SDS011;67902;52.154;5.430;2023-05-07T15:24:00;18.98;;;11.05;;